createdAt,value
2018-11-21T00:02:04.553Z,2.34
2018-11-21T00:04:31.406Z,2.30
2018-11-21T00:06:58.198Z,2.25
2018-11-21T00:09:25.721Z,2.31
2018-11-21T00:11:52.534Z,2.38
2018-11-21T00:14:19.275Z,2.42
2018-11-21T00:16:46.878Z,2.43
2018-11-21T00:19:13.667Z,2.33
2018-11-21T00:21:40.415Z,2.40
2018-11-21T00:24:07.287Z,2.41
2018-11-21T00:26:34.124Z,2.33
2018-11-21T00:29:00.947Z,2.26
2018-11-21T00:31:27.678Z,2.29
2018-11-21T00:33:54.475Z,2.26
2018-11-21T00:36:21.207Z,2.36
2018-11-21T00:38:47.968Z,2.26
2018-11-21T00:41:14.764Z,2.16
2018-11-21T00:43:41.483Z,2.19
2018-11-21T00:46:08.471Z,2.21
2018-11-21T00:48:35.301Z,2.15
2018-11-21T00:51:02.061Z,2.08
2018-11-21T00:53:28.847Z,2.21
2018-11-21T00:55:55.887Z,2.14
2018-11-21T00:58:22.963Z,2.21
2018-11-21T01:00:49.770Z,2.17
2018-11-21T01:03:16.570Z,2.15
2018-11-21T01:05:43.803Z,2.15
2018-11-21T01:08:11.129Z,2.18
2018-11-21T01:10:37.933Z,2.15
2018-11-21T01:13:04.668Z,2.17
2018-11-21T01:15:31.404Z,2.05
2018-11-21T01:17:58.192Z,2.12
2018-11-21T01:20:24.938Z,2.14
2018-11-21T01:22:51.933Z,2.14
2018-11-21T01:25:18.715Z,2.13
2018-11-21T01:27:45.792Z,2.08
2018-11-21T01:30:12.863Z,2.06
2018-11-21T01:32:39.673Z,2.04
2018-11-21T01:35:06.671Z,2.09
2018-11-21T01:37:33.857Z,2.13
2018-11-21T01:40:00.658Z,2.17
2018-11-21T01:42:27.409Z,2.11
2018-11-21T01:44:54.174Z,2.03
2018-11-21T01:47:20.960Z,2.09
2018-11-21T01:49:47.782Z,2.05
2018-11-21T01:52:14.510Z,2.16
2018-11-21T01:54:41.433Z,2.06
2018-11-21T01:57:08.168Z,2.11
2018-11-21T01:59:34.925Z,2.13
2018-11-21T02:02:01.722Z,2.06
2018-11-21T02:04:28.837Z,2.10
2018-11-21T02:06:55.672Z,1.98
2018-11-21T02:09:22.467Z,2.06
2018-11-21T02:11:49.188Z,1.97
2018-11-21T02:14:15.924Z,1.96
2018-11-21T02:16:42.692Z,2.00
2018-11-21T02:19:09.893Z,1.96
2018-11-21T02:21:36.616Z,2.03
2018-11-21T02:24:03.498Z,2.04
2018-11-21T02:26:30.242Z,1.95
2018-11-21T02:28:57.101Z,1.94
2018-11-21T02:31:23.963Z,2.02
2018-11-21T02:33:50.831Z,2.00
2018-11-21T02:36:17.572Z,1.92
2018-11-21T02:38:44.494Z,1.95
2018-11-21T02:41:11.307Z,1.98
2018-11-21T02:43:38.179Z,1.99
2018-11-21T02:46:04.987Z,1.92
2018-11-21T02:48:31.715Z,2.03
2018-11-21T02:50:58.459Z,1.90
2018-11-21T02:53:25.391Z,1.88
2018-11-21T02:55:52.195Z,1.96
2018-11-21T02:58:18.943Z,1.82
2018-11-21T03:00:45.735Z,1.85
2018-11-21T03:03:12.470Z,1.83
2018-11-21T03:05:39.199Z,1.84
2018-11-21T03:08:06.122Z,1.76
2018-11-21T03:10:33.259Z,1.76
2018-11-21T03:13:00.014Z,1.74
2018-11-21T03:15:26.806Z,1.81
2018-11-21T03:17:53.544Z,1.77
2018-11-21T03:20:20.269Z,1.81
2018-11-21T03:22:47.481Z,1.84
2018-11-21T03:25:14.237Z,1.71
2018-11-21T03:27:40.972Z,1.84
2018-11-21T03:30:08.813Z,1.82
2018-11-21T03:32:35.659Z,1.75
2018-11-21T03:35:02.391Z,1.77
2018-11-21T03:37:29.261Z,1.82
2018-11-21T03:39:56.389Z,1.76
2018-11-21T03:42:23.129Z,1.87
2018-11-21T03:44:49.903Z,1.81
2018-11-21T03:47:16.651Z,1.79
2018-11-21T03:49:43.495Z,1.69
2018-11-21T03:52:10.278Z,1.81
2018-11-21T03:54:37.184Z,1.78
2018-11-21T03:57:03.912Z,1.70
2018-11-21T03:59:30.706Z,1.76
2018-11-21T04:01:57.444Z,1.77
2018-11-21T04:04:24.183Z,1.62
2018-11-21T04:06:50.986Z,1.70
2018-11-21T04:09:17.800Z,1.71
2018-11-21T04:11:44.550Z,1.70
2018-11-21T04:14:11.342Z,1.71
2018-11-21T04:16:38.090Z,1.67
2018-11-21T04:19:04.872Z,1.69
2018-11-21T04:21:31.661Z,1.69
2018-11-21T04:23:58.394Z,1.67
2018-11-21T04:26:25.271Z,1.73
2018-11-21T04:28:52.380Z,1.67
2018-11-21T04:31:19.122Z,1.70
2018-11-21T04:33:45.867Z,1.69
2018-11-21T04:36:13.386Z,1.64
2018-11-21T04:38:40.210Z,1.57
2018-11-21T04:41:06.949Z,1.56
2018-11-21T04:43:33.741Z,1.60
2018-11-21T04:46:00.490Z,1.54
2018-11-21T04:48:27.218Z,1.55
2018-11-21T04:50:55.245Z,1.50
2018-11-21T04:53:21.982Z,1.60
2018-11-21T04:55:48.736Z,1.55
2018-11-21T04:58:15.528Z,1.53
2018-11-21T05:00:42.275Z,1.52
2018-11-21T05:03:09.088Z,1.51
2018-11-21T05:05:35.889Z,1.50
2018-11-21T05:08:02.631Z,1.62
2018-11-21T05:10:29.589Z,1.55
2018-11-21T05:12:56.370Z,1.57
2018-11-21T05:15:23.116Z,1.55
2018-11-21T05:17:49.846Z,1.53
2018-11-21T05:20:23.509Z,1.59
2018-11-21T05:22:50.250Z,1.53
2018-11-21T05:25:16.985Z,1.59
2018-11-21T05:27:43.784Z,1.64
2018-11-21T05:30:11.824Z,1.55
2018-11-21T05:32:38.695Z,1.72
2018-11-21T05:35:05.681Z,1.64
2018-11-21T05:37:32.550Z,1.65
2018-11-21T05:39:59.439Z,1.59
2018-11-21T05:42:26.381Z,1.66
2018-11-21T05:44:53.137Z,1.75
2018-11-21T05:47:19.978Z,1.64
2018-11-21T05:49:47.090Z,1.73
2018-11-21T05:52:13.822Z,1.61
2018-11-21T05:54:40.762Z,1.73
2018-11-21T05:57:07.571Z,1.73
2018-11-21T05:59:34.684Z,1.60
2018-11-21T06:02:01.454Z,1.64
2018-11-21T06:04:28.254Z,1.64
2018-11-21T06:06:55.601Z,1.68
2018-11-21T06:09:22.397Z,1.64
2018-11-21T06:11:49.199Z,1.61
2018-11-21T06:14:15.954Z,1.62
2018-11-21T06:16:43.588Z,1.69
2018-11-21T06:19:10.462Z,1.70
2018-11-21T06:21:37.294Z,1.68
2018-11-21T06:24:04.076Z,1.57
2018-11-21T06:26:31.337Z,1.77
2018-11-21T06:28:58.063Z,1.70
2018-11-21T06:31:24.808Z,1.72
2018-11-21T06:33:51.656Z,1.67
2018-11-21T06:36:18.406Z,1.63
2018-11-21T06:38:45.144Z,1.71
2018-11-21T06:41:11.948Z,1.67
2018-11-21T06:43:38.691Z,1.59
2018-11-21T06:46:05.455Z,1.68
2018-11-21T06:48:32.267Z,1.56
2018-11-21T06:50:59.015Z,1.57
2018-11-21T06:53:25.806Z,1.66
2018-11-21T06:55:52.616Z,1.73
2018-11-21T06:58:19.823Z,1.73
2018-11-21T07:00:47.607Z,1.74
2018-11-21T07:03:14.438Z,1.78
2018-11-21T07:05:42.227Z,1.76
2018-11-21T07:08:09.620Z,1.78
2018-11-21T07:10:36.459Z,1.81
2018-11-21T07:13:03.220Z,1.75
2018-11-21T07:15:29.992Z,1.70
2018-11-21T07:17:56.957Z,1.74
2018-11-21T07:20:23.828Z,1.78
2018-11-21T07:22:50.585Z,1.79
2018-11-21T07:25:19.090Z,1.93
2018-11-21T07:27:46.394Z,1.93
2018-11-21T07:30:14.235Z,1.80
2018-11-21T07:32:41.087Z,1.99
2018-11-21T07:35:09.104Z,1.91
2018-11-21T07:37:36.091Z,1.85
2018-11-21T07:40:03.947Z,1.88
2018-11-21T07:42:30.748Z,2.00
2018-11-21T07:44:57.507Z,1.88
2018-11-21T07:47:26.634Z,1.98
2018-11-21T07:49:51.801Z,2.06
2018-11-21T07:52:19.191Z,2.00
2018-11-21T07:54:46.047Z,1.91
2018-11-21T07:57:33.044Z,1.95
2018-11-21T08:01:00.656Z,2.02
2018-11-21T08:03:29.330Z,2.01
2018-11-21T08:06:23.601Z,2.20
2018-11-21T08:09:09.125Z,1.95
2018-11-21T08:11:55.847Z,2.05
2018-11-21T08:14:51.405Z,1.99
2018-11-21T08:17:25.460Z,2.04
2018-11-21T08:20:10.696Z,2.02
2018-11-21T08:22:47.254Z,1.93
2018-11-21T08:25:39.643Z,1.89
2018-11-21T08:28:21.992Z,1.85
2018-11-21T08:30:49.560Z,1.97
2018-11-21T08:33:16.311Z,2.13
2018-11-21T08:35:43.298Z,2.19
2018-11-21T08:38:10.037Z,2.17
2018-11-21T08:40:37.254Z,2.14
2018-11-21T08:43:05.624Z,2.32
2018-11-21T08:45:32.352Z,2.25
2018-11-21T08:47:59.153Z,2.19
2018-11-21T08:50:25.968Z,2.08
2018-11-21T08:52:52.720Z,2.08
2018-11-21T08:55:19.605Z,2.11
2018-11-21T08:57:46.386Z,2.08
2018-11-21T09:00:13.915Z,2.16
2018-11-21T09:02:40.807Z,2.25
2018-11-21T09:05:08.885Z,2.11
2018-11-21T09:07:35.976Z,2.19
2018-11-21T09:10:03.333Z,2.26
2018-11-21T09:12:30.465Z,2.46
2018-11-21T09:14:57.205Z,2.49
2018-11-21T09:17:23.941Z,2.50
2018-11-21T09:19:51.055Z,2.38
2018-11-21T09:22:17.854Z,2.21
2018-11-21T09:24:44.933Z,2.28
2018-11-21T09:27:11.817Z,2.34
2018-11-21T09:29:38.981Z,2.33
2018-11-21T09:32:05.734Z,2.32
2018-11-21T09:34:32.617Z,2.33
2018-11-21T09:36:59.417Z,2.46
2018-11-21T09:39:26.152Z,2.33
2018-11-21T09:41:53.833Z,2.37
2018-11-21T09:44:20.712Z,2.22
2018-11-21T09:46:47.567Z,2.23
2018-11-21T09:49:14.778Z,2.38
2018-11-21T09:51:43.709Z,2.48
2018-11-21T09:54:10.462Z,2.37
2018-11-21T09:56:37.249Z,2.34
2018-11-21T09:59:04.043Z,2.27
2018-11-21T10:02:08.087Z,2.28
2018-11-21T10:04:34.789Z,2.34
2018-11-21T10:07:01.581Z,2.44
2018-11-21T10:09:31.445Z,2.23
2018-11-21T10:11:58.176Z,2.29
2018-11-21T10:14:24.927Z,2.46
2018-11-21T10:16:51.722Z,2.56
2018-11-21T10:19:18.456Z,2.40
2018-11-21T10:21:45.207Z,2.16
2018-11-21T10:24:11.995Z,2.13
2018-11-21T10:26:38.734Z,2.03
2018-11-21T10:29:05.576Z,2.09
2018-11-21T10:31:32.504Z,2.07
2018-11-21T10:33:59.571Z,1.99
2018-11-21T10:36:26.317Z,2.05
2018-11-21T10:38:53.101Z,2.04
2018-11-21T10:41:19.873Z,2.01
2018-11-21T10:43:46.611Z,2.03
2018-11-21T10:46:13.439Z,2.14
2018-11-21T10:48:40.211Z,2.01
2018-11-21T10:51:07.242Z,2.02
2018-11-21T10:53:34.063Z,2.11
2018-11-21T10:56:00.821Z,2.05
2018-11-21T10:58:27.972Z,2.09
2018-11-21T11:01:13.288Z,2.04
2018-11-21T11:03:51.199Z,2.09
2018-11-21T11:06:52.982Z,2.14
2018-11-21T11:09:37.877Z,2.05
2018-11-21T11:12:23.507Z,2.14
2018-11-21T11:15:08.482Z,2.07
2018-11-21T11:18:06.801Z,2.14
2018-11-21T11:21:07.074Z,2.14
2018-11-21T11:24:05.022Z,2.14
2018-11-21T11:26:47.187Z,2.09
2018-11-21T11:29:39.687Z,2.16
2018-11-21T11:32:24.851Z,2.21
2018-11-21T11:35:13.853Z,2.25
2018-11-21T11:41:03.360Z,2.33
2018-11-21T11:43:48.859Z,2.22
2018-11-21T11:46:41.635Z,2.27
2018-11-21T11:49:27.816Z,2.23
2018-11-21T11:52:15.117Z,2.23
2018-11-21T11:55:12.084Z,2.22
2018-11-21T11:58:01.459Z,2.31
2018-11-21T12:00:47.798Z,2.42
2018-11-21T12:03:34.165Z,2.46
2018-11-21T12:06:18.225Z,2.21
2018-11-21T12:09:04.579Z,2.37
2018-11-21T12:11:47.796Z,2.38
2018-11-21T12:14:34.167Z,2.43
2018-11-21T12:17:20.472Z,2.48
2018-11-21T12:20:04.708Z,2.57
2018-11-21T12:22:51.094Z,2.55
2018-11-21T12:25:37.515Z,2.55
2018-11-21T12:28:24.316Z,2.58
2018-11-21T12:31:10.680Z,2.62
2018-11-21T12:33:57.470Z,2.57
2018-11-21T12:36:45.054Z,2.61
2018-11-21T12:39:32.063Z,2.61
2018-11-21T12:42:19.915Z,2.48
2018-11-21T12:45:06.248Z,2.40
2018-11-21T12:47:53.263Z,2.57
2018-11-21T12:50:40.131Z,2.56
2018-11-21T12:53:26.588Z,2.61
2018-11-21T12:56:13.422Z,2.34
2018-11-21T12:59:00.250Z,2.33
2018-11-21T13:01:46.841Z,2.22
2018-11-21T13:04:33.771Z,2.24
2018-11-21T13:07:08.834Z,2.15
2018-11-21T13:09:56.758Z,2.19
2018-11-21T13:12:42.764Z,2.29
2018-11-21T13:15:49.816Z,2.20
2018-11-21T13:18:36.641Z,2.20
2018-11-21T13:21:23.126Z,2.33
2018-11-21T13:24:09.441Z,2.23
2018-11-21T13:26:55.850Z,2.30
2018-11-21T13:29:42.159Z,2.13
2018-11-21T13:32:28.514Z,2.21
2018-11-21T13:35:14.843Z,2.14
2018-11-21T13:38:01.258Z,2.15
2018-11-21T13:40:47.631Z,2.24
2018-11-21T13:43:34.007Z,2.16
2018-11-21T13:46:20.453Z,2.15
2018-11-21T13:49:07.149Z,2.18
2018-11-21T13:51:53.852Z,2.26
2018-11-21T13:54:40.230Z,2.28
2018-11-21T13:57:07.012Z,2.29
2018-11-21T13:59:53.896Z,2.25
2018-11-21T14:02:20.729Z,2.33
2018-11-21T14:04:47.460Z,2.41
2018-11-21T14:07:14.287Z,2.45
2018-11-21T14:09:41.039Z,2.36
2018-11-21T14:12:08.361Z,2.32
2018-11-21T14:14:35.218Z,2.41
2018-11-21T14:17:01.918Z,2.42
2018-11-21T14:19:28.621Z,2.44
2018-11-21T14:21:56.086Z,2.45
2018-11-21T14:24:22.515Z,2.37
2018-11-21T14:26:49.228Z,2.39
2018-11-21T14:29:16.158Z,2.41
2018-11-21T14:31:43.406Z,2.37
2018-11-21T14:34:10.185Z,2.24
2018-11-21T14:36:36.968Z,2.40
2018-11-21T14:39:10.582Z,2.29
2018-11-21T14:41:37.732Z,2.23
2018-11-21T14:44:05.479Z,2.30
2018-11-21T14:46:32.491Z,2.26
2018-11-21T14:48:59.207Z,2.24
2018-11-21T14:51:25.947Z,2.15
2018-11-21T14:53:53.109Z,2.11
2018-11-21T14:56:19.880Z,2.15
2018-11-21T14:58:46.949Z,2.11
2018-11-21T15:01:13.703Z,2.10
2018-11-21T15:03:40.411Z,2.11
2018-11-21T15:06:07.170Z,2.15
2018-11-21T15:08:33.877Z,2.05
2018-11-21T15:11:00.861Z,2.17
2018-11-21T15:13:27.754Z,2.18
2018-11-21T15:15:54.469Z,2.08
2018-11-21T15:18:21.451Z,1.98
2018-11-21T15:20:48.254Z,1.91
2018-11-21T15:23:15.059Z,2.05
2018-11-21T15:25:41.885Z,2.04
2018-11-21T15:28:09.049Z,2.01
2018-11-21T15:30:36.066Z,2.00
2018-11-21T15:33:02.834Z,2.06
2018-11-21T15:35:29.610Z,2.05
2018-11-21T15:38:16.251Z,1.93
2018-11-21T15:40:46.942Z,2.09
2018-11-21T15:43:09.721Z,1.97
2018-11-21T15:45:36.486Z,1.99
2018-11-21T15:48:03.327Z,2.01
2018-11-21T15:50:30.946Z,1.91
2018-11-21T15:52:57.746Z,1.92
2018-11-21T15:55:24.518Z,1.91
2018-11-21T15:57:51.303Z,1.89
2018-11-21T16:00:20.739Z,1.89
2018-11-21T16:02:48.661Z,1.86
2018-11-21T16:05:16.156Z,1.95
2018-11-21T16:08:03.523Z,1.87
2018-11-21T16:10:48.907Z,1.81
2018-11-21T16:13:15.667Z,1.83
2018-11-21T16:15:44.445Z,1.77
2018-11-21T16:18:11.233Z,1.85
2018-11-21T16:20:38.094Z,1.85
2018-11-21T16:23:04.827Z,1.89
2018-11-21T16:25:31.535Z,1.97
2018-11-21T16:27:58.332Z,1.77
2018-11-21T16:30:25.618Z,1.86
2018-11-21T16:32:52.470Z,1.80
2018-11-21T16:35:19.299Z,1.76
2018-11-21T16:37:46.324Z,1.82
2018-11-21T16:40:15.447Z,1.81
2018-11-21T16:42:42.285Z,1.94
2018-11-21T16:45:10.521Z,1.81
2018-11-21T16:47:37.361Z,1.83
2018-11-21T16:50:07.099Z,1.94
2018-11-21T16:52:33.873Z,1.74
2018-11-21T16:55:00.723Z,1.71
2018-11-21T16:57:27.935Z,1.84
2018-11-21T16:59:55.821Z,1.83
2018-11-21T17:02:21.679Z,1.95
2018-11-21T17:04:48.684Z,1.89
2018-11-21T17:07:15.509Z,1.86
2018-11-21T17:09:43.730Z,1.79
2018-11-21T17:12:12.051Z,1.83
2018-11-21T17:14:39.221Z,1.81
2018-11-21T17:17:06.147Z,1.84
2018-11-21T17:19:33.047Z,1.85
2018-11-21T17:22:00.050Z,1.76
2018-11-21T17:24:26.896Z,1.68
2018-11-21T17:26:53.967Z,1.54
2018-11-21T17:29:21.079Z,1.64
2018-11-21T17:31:49.327Z,1.77
2018-11-21T17:34:16.291Z,1.57
2018-11-21T17:36:43.222Z,1.56
2018-11-21T17:39:11.632Z,1.62
2018-11-21T17:41:38.498Z,1.66
2018-11-21T17:44:05.382Z,1.62
2018-11-21T17:46:32.096Z,1.70
2018-11-21T17:48:58.882Z,1.59
2018-11-21T17:51:26.700Z,1.68
2018-11-21T17:53:52.338Z,1.63
2018-11-21T17:56:19.094Z,1.58
2018-11-21T17:58:45.813Z,1.48
2018-11-21T18:01:12.760Z,1.55
2018-11-21T18:03:40.238Z,1.37
2018-11-21T18:06:07.047Z,1.43
2018-11-21T18:08:33.886Z,1.43
2018-11-21T18:11:00.771Z,1.35
2018-11-21T18:13:27.482Z,1.46
2018-11-21T18:15:54.330Z,1.36
2018-11-21T18:18:21.554Z,1.20
2018-11-21T18:20:48.262Z,1.24
2018-11-21T18:23:14.962Z,1.22
2018-11-21T18:28:16.817Z,1.23
2018-11-21T18:30:43.589Z,1.25
2018-11-21T18:33:12.033Z,1.29
2018-11-21T18:35:38.505Z,1.35
2018-11-21T18:38:05.322Z,1.17
2018-11-21T18:40:32.266Z,1.18
2018-11-21T18:42:59.365Z,1.22
2018-11-21T18:45:29.409Z,1.26
2018-11-21T18:47:56.305Z,1.24
2018-11-21T18:50:23.209Z,1.27
2018-11-21T18:52:51.181Z,1.33
2018-11-21T18:55:20.857Z,1.29
2018-11-21T18:58:27.228Z,1.20
2018-11-21T19:00:54.760Z,1.25
2018-11-21T19:03:21.617Z,1.21
2018-11-21T19:05:49.249Z,1.25
2018-11-21T19:08:23.744Z,1.25
2018-11-21T19:10:51.383Z,1.25
2018-11-21T19:13:18.311Z,1.24
2018-11-21T19:15:46.412Z,1.25
2018-11-21T19:18:13.315Z,1.30
2018-11-21T19:20:40.152Z,1.25
2018-11-21T19:23:26.894Z,1.29
2018-11-21T19:25:53.599Z,1.29
2018-11-21T19:28:20.391Z,1.25
2018-11-21T19:30:47.247Z,1.21
2018-11-21T19:33:14.090Z,1.13
2018-11-21T19:35:41.207Z,1.24
2018-11-21T19:38:07.984Z,1.27
2018-11-21T19:40:35.142Z,1.31
2018-11-21T19:43:02.189Z,1.29
2018-11-21T19:45:29.438Z,1.25
2018-11-21T19:47:56.660Z,1.40
2018-11-21T19:50:23.458Z,1.38
2018-11-21T19:52:50.925Z,1.31
2018-11-21T19:55:19.929Z,1.28
2018-11-21T19:57:46.832Z,1.36
2018-11-21T20:00:16.537Z,1.36
2018-11-21T20:02:43.409Z,1.47
2018-11-21T20:05:10.173Z,1.35
2018-11-21T20:07:37.586Z,1.39
2018-11-21T20:10:05.354Z,1.40
2018-11-21T20:12:32.700Z,1.45
2018-11-21T20:14:59.876Z,1.47
2018-11-21T20:17:26.589Z,1.47
2018-11-21T20:19:53.303Z,1.51
2018-11-21T20:22:20.117Z,1.48
2018-11-21T20:24:47.262Z,1.48
2018-11-21T20:27:14.123Z,1.43
2018-11-21T20:29:46.513Z,1.59
2018-11-21T20:32:07.683Z,1.59
2018-11-21T20:34:34.474Z,1.67
2018-11-21T20:37:02.018Z,1.58
2018-11-21T20:39:28.800Z,1.67
2018-11-21T20:41:55.665Z,1.65
2018-11-21T20:44:22.534Z,1.71
2018-11-21T20:46:49.275Z,1.57
2018-11-21T20:49:16.001Z,1.61
2018-11-21T20:51:42.811Z,1.52
2018-11-21T20:54:09.623Z,1.60
2018-11-21T20:56:36.359Z,1.54
2018-11-21T20:59:03.471Z,1.58
2018-11-21T21:01:30.233Z,1.50
2018-11-21T21:03:57.092Z,1.46
2018-11-21T21:06:23.910Z,1.48
2018-11-21T21:08:50.953Z,1.63
2018-11-21T21:11:17.690Z,1.62
2018-11-21T21:13:44.857Z,1.55
2018-11-21T21:16:11.612Z,1.59
2018-11-21T21:18:38.716Z,1.53
2018-11-21T21:21:05.643Z,1.58
2018-11-21T21:23:32.470Z,1.72
2018-11-21T21:25:59.205Z,1.71
2018-11-21T21:28:26.059Z,1.54
2018-11-21T21:30:52.817Z,1.58
2018-11-21T21:33:19.552Z,1.67
2018-11-21T21:35:46.342Z,1.62
2018-11-21T21:38:13.065Z,1.63
2018-11-21T21:40:39.907Z,1.53
2018-11-21T21:43:06.710Z,1.65
2018-11-21T21:45:33.617Z,1.58
2018-11-21T21:48:00.637Z,1.52
2018-11-21T21:50:29.105Z,1.57
2018-11-21T21:52:55.882Z,1.62
2018-11-21T21:55:23.937Z,1.61
2018-11-21T21:57:50.818Z,1.66
2018-11-21T22:00:21.933Z,1.58
2018-11-21T22:02:49.524Z,1.48
2018-11-21T22:05:18.350Z,1.56
2018-11-21T22:07:45.090Z,1.53
2018-11-21T22:10:13.209Z,1.55
2018-11-21T22:12:40.415Z,1.52
2018-11-21T22:18:10.674Z,1.62
2018-11-21T22:20:37.736Z,1.57
2018-11-21T22:23:04.645Z,1.56
2018-11-21T22:25:31.538Z,1.58
2018-11-21T22:27:58.355Z,1.56
2018-11-21T22:30:25.264Z,1.58
2018-11-21T22:32:52.894Z,1.68
2018-11-21T22:35:24.974Z,1.57
2018-11-21T22:37:51.367Z,1.58
2018-11-21T22:40:15.585Z,1.62
2018-11-21T22:42:45.048Z,1.62
2018-11-21T22:45:13.105Z,1.59
2018-11-21T22:47:41.332Z,1.63
2018-11-21T22:50:09.624Z,1.60
2018-11-21T22:52:36.642Z,1.57
2018-11-21T22:55:03.484Z,1.72
2018-11-21T22:57:50.041Z,1.62
2018-11-21T23:00:19.544Z,1.64
2018-11-21T23:02:46.326Z,1.59
2018-11-21T23:05:13.046Z,1.68
2018-11-21T23:07:40.963Z,1.67
2018-11-21T23:10:08.952Z,1.69
2018-11-21T23:12:35.791Z,1.74
2018-11-21T23:15:02.899Z,1.77
2018-11-21T23:17:29.766Z,1.63
2018-11-21T23:19:56.507Z,1.73
2018-11-21T23:22:23.287Z,1.68
2018-11-21T23:24:50.018Z,1.68
2018-11-21T23:27:16.753Z,1.67
2018-11-21T23:29:43.556Z,1.63
2018-11-21T23:32:10.663Z,1.69
2018-11-21T23:34:37.491Z,1.64
2018-11-21T23:37:04.378Z,1.65
2018-11-21T23:39:31.108Z,1.69
2018-11-21T23:41:57.902Z,1.67
2018-11-21T23:44:24.725Z,1.76
2018-11-21T23:46:51.518Z,1.71
2018-11-21T23:49:18.379Z,1.75
2018-11-21T23:51:45.181Z,1.70
2018-11-21T23:54:11.912Z,1.66
2018-11-21T23:56:38.736Z,1.62
2018-11-21T23:59:05.544Z,1.71
